Randolph, New York
Current Conditions -  °F | °C
As of 10:55 AM on Friday 28 Nov 2014 (Local Time) from KJHW Reporting Station
Overcast Overcast  
Wind Chill: 10°   Ceiling: 2400
Heat Index: 19°   Visibility: 3mi
Dew Point: 14°   Wind: 7mph
Humidity: 80%   Direction: 260°W
Pressure: 30.22"   Gusts: NA
Location:  42.16°N, 78.98°W
Report Text: KJHW 281555Z 26006KT 3SM SCT016 BKN024 OVC034 M07/M10 A3022 RMK AO1
Loading
Personal Weather Stations






























Interactive Weather Map New forecast layout! Learn more

10-Day Weather Forecast

Advertisements
Track Severe Weather on mobile